Terminal Aerodrome Forecast
Issued by NWS

Home | Current Version | Previous Version | Text Only | Print | Product List | Glossary On
Versions: 1 2 3 4 5 6 7 8 9 10 11 12 13 14 15 16 17 18 19
000
FTUS43 KAPX 232326
TAFPLN
TAF
KPLN 232326Z 2400/2424 27011KT P6SM OVC025
     FM240300 30009KT P6SM BKN035
     FM240700 30006KT P6SM BKN250
     FM241200 00000KT 5SM BR BKN200
     FM241500 00000KT P6SM SCT150
     FM242000 09006KT P6SM SCT150=

USA.gov is the U.S. government's official web portal to all federal, state and local government web resources and services.